createdAt,value
2022-12-27T00:02:21.616Z,4.70
2022-12-27T00:04:48.455Z,4.60
2022-12-27T00:07:15.060Z,4.60
2022-12-27T00:09:42.140Z,4.50
2022-12-27T00:12:09.029Z,4.30
2022-12-27T00:14:35.650Z,4.20
2022-12-27T00:17:02.352Z,4.10
2022-12-27T00:19:29.043Z,4.00
2022-12-27T00:21:55.753Z,3.90
2022-12-27T00:24:22.553Z,3.80
2022-12-27T00:26:49.345Z,3.70
2022-12-27T00:29:16.024Z,3.60
2022-12-27T00:31:42.764Z,3.60
2022-12-27T00:34:10.372Z,3.50
2022-12-27T00:36:37.265Z,3.40
2022-12-27T00:39:04.147Z,3.30
2022-12-27T00:41:31.342Z,3.30
2022-12-27T00:43:58.012Z,3.20
2022-12-27T00:46:24.752Z,3.20
2022-12-27T00:48:51.480Z,3.10
2022-12-27T00:51:20.963Z,3.10
2022-12-27T00:53:48.002Z,3.00
2022-12-27T00:56:18.677Z,3.00
2022-12-27T00:58:45.339Z,2.90
2022-12-27T01:01:15.023Z,2.90
2022-12-27T01:03:42.083Z,2.90
2022-12-27T01:06:11.853Z,2.80
2022-12-27T01:08:38.772Z,2.80
2022-12-27T01:11:06.573Z,2.70
2022-12-27T01:13:34.258Z,2.70
2022-12-27T01:16:01.426Z,2.70
2022-12-27T01:18:28.978Z,2.60
2022-12-27T01:20:55.659Z,2.60
2022-12-27T01:23:22.374Z,2.60
2022-12-27T01:25:49.015Z,2.60
2022-12-27T01:28:15.633Z,2.60
2022-12-27T01:30:42.339Z,2.60
2022-12-27T01:33:09.021Z,2.60
2022-12-27T01:35:35.696Z,2.50
2022-12-27T01:38:02.337Z,2.50
2022-12-27T01:40:29.081Z,2.50
2022-12-27T01:42:56.760Z,2.50
2022-12-27T01:45:28.925Z,2.50
2022-12-27T01:48:17.308Z,2.50
2022-12-27T01:50:47.385Z,2.40
2022-12-27T01:53:24.454Z,2.40
2022-12-27T01:56:00.198Z,2.40
2022-12-27T01:58:35.425Z,2.40
2022-12-27T02:01:04.587Z,2.40
2022-12-27T02:03:37.518Z,2.40
2022-12-27T02:06:06.473Z,2.40
2022-12-27T02:08:56.612Z,2.40
2022-12-27T02:11:46.060Z,2.40
2022-12-27T02:14:13.820Z,2.40
2022-12-27T02:16:40.630Z,2.40
2022-12-27T02:19:23.433Z,2.40
2022-12-27T02:22:13.176Z,2.40
2022-12-27T02:24:49.920Z,2.40
2022-12-27T02:27:26.513Z,2.40
2022-12-27T02:30:04.493Z,2.40
2022-12-27T02:32:40.345Z,2.40
2022-12-27T02:35:27.549Z,2.40
2022-12-27T02:38:19.659Z,2.40
2022-12-27T02:41:05.284Z,2.40
2022-12-27T02:43:51.840Z,2.40
2022-12-27T02:46:42.189Z,2.40
2022-12-27T02:49:50.929Z,2.30
2022-12-27T02:53:09.803Z,2.30
2022-12-27T02:56:20.253Z,2.30
2022-12-27T02:59:17.878Z,2.30
2022-12-27T03:02:03.164Z,2.30
2022-12-27T03:04:54.639Z,2.30
2022-12-27T03:07:27.169Z,2.30
2022-12-27T03:10:49.795Z,2.30
2022-12-27T03:13:49.954Z,2.20
2022-12-27T03:16:24.914Z,2.20
2022-12-27T03:19:03.443Z,2.30
2022-12-27T03:21:50.348Z,2.30
2022-12-27T03:24:39.596Z,2.30
2022-12-27T03:27:18.250Z,2.30
2022-12-27T03:30:11.991Z,2.30
2022-12-27T03:33:09.134Z,2.30
2022-12-27T03:35:41.967Z,2.30
2022-12-27T03:38:12.709Z,2.30
2022-12-27T03:41:10.722Z,2.30
2022-12-27T03:43:40.586Z,2.30
2022-12-27T03:46:34.846Z,2.30
2022-12-27T03:49:29.197Z,2.30
2022-12-27T03:52:16.845Z,2.30
2022-12-27T03:54:46.800Z,2.30
2022-12-27T03:57:20.231Z,2.30
2022-12-27T03:59:47.382Z,2.30
2022-12-27T04:02:14.711Z,2.30
2022-12-27T04:04:41.945Z,2.30
2022-12-27T04:07:09.035Z,2.30
2022-12-27T04:09:54.271Z,2.30
2022-12-27T04:12:39.605Z,2.30
2022-12-27T04:15:24.931Z,2.30
2022-12-27T04:18:10.237Z,2.20
2022-12-27T04:20:55.784Z,2.20
2022-12-27T04:23:41.096Z,2.20
2022-12-27T04:26:26.643Z,2.20
2022-12-27T04:29:12.236Z,2.20
2022-12-27T04:31:57.502Z,2.20
2022-12-27T04:34:43.145Z,2.20
2022-12-27T04:37:15.978Z,2.20
2022-12-27T04:40:09.933Z,2.10
2022-12-27T04:42:55.481Z,2.10
2022-12-27T04:45:41.104Z,2.10
2022-12-27T04:48:32.265Z,2.10
2022-12-27T04:51:18.522Z,2.00
2022-12-27T04:54:03.940Z,2.10
2022-12-27T04:56:30.578Z,2.10
2022-12-27T04:59:16.249Z,2.10
2022-12-27T05:02:01.971Z,2.10
2022-12-27T05:04:29.600Z,2.10
2022-12-27T05:06:57.162Z,2.10
2022-12-27T05:09:43.197Z,2.00
2022-12-27T05:12:29.702Z,2.00
2022-12-27T05:14:56.338Z,2.00
2022-12-27T05:17:23.008Z,2.00
2022-12-27T05:19:49.616Z,1.90
2022-12-27T05:22:35.080Z,1.90
2022-12-27T05:25:20.394Z,1.90
2022-12-27T05:27:47.063Z,1.90
2022-12-27T05:30:13.731Z,1.90
2022-12-27T05:32:40.389Z,1.90
2022-12-27T05:35:07.332Z,1.90
2022-12-27T05:37:34.015Z,1.80
2022-12-27T05:40:00.648Z,1.80
2022-12-27T05:42:27.297Z,1.80
2022-12-27T05:44:54.085Z,1.80
2022-12-27T05:47:20.714Z,1.80
2022-12-27T05:49:47.382Z,1.80
2022-12-27T05:52:14.094Z,1.80
2022-12-27T05:54:40.737Z,1.80
2022-12-27T05:57:07.410Z,1.80
2022-12-27T05:59:34.080Z,1.70
2022-12-27T06:02:01.624Z,1.80
2022-12-27T06:04:28.481Z,1.70
2022-12-27T06:06:55.200Z,1.70
2022-12-27T06:09:21.868Z,1.70
2022-12-27T06:11:48.490Z,1.70
2022-12-27T06:14:15.333Z,1.70
2022-12-27T06:16:42.219Z,1.70
2022-12-27T06:19:09.152Z,1.70
2022-12-27T06:21:35.924Z,1.80
2022-12-27T06:24:02.656Z,1.80
2022-12-27T06:26:30.434Z,1.70
2022-12-27T06:28:58.552Z,1.70
2022-12-27T06:31:26.446Z,1.70
2022-12-27T06:33:53.956Z,1.70
2022-12-27T06:36:23.606Z,1.60
2022-12-27T06:38:50.309Z,1.70
2022-12-27T06:41:18.470Z,1.60
2022-12-27T06:43:46.213Z,1.60
2022-12-27T06:46:17.802Z,1.60
2022-12-27T06:48:48.054Z,1.50
2022-12-27T06:51:16.674Z,1.50
2022-12-27T06:53:43.290Z,1.50
2022-12-27T06:56:18.659Z,1.50
2022-12-27T06:58:46.729Z,1.50
2022-12-27T07:01:19.903Z,1.50
2022-12-27T07:03:51.175Z,1.50
2022-12-27T07:06:19.024Z,1.40
2022-12-27T07:08:46.629Z,1.40
2022-12-27T07:11:14.440Z,1.40
2022-12-27T07:13:44.656Z,1.40
2022-12-27T07:16:17.783Z,1.40
2022-12-27T07:18:44.487Z,1.30
2022-12-27T07:21:13.952Z,1.40
2022-12-27T07:23:40.973Z,1.40
2022-12-27T07:26:10.381Z,1.30
2022-12-27T07:28:37.731Z,1.30
2022-12-27T07:31:09.075Z,1.30
2022-12-27T07:33:37.083Z,1.30
2022-12-27T07:36:07.809Z,1.30
2022-12-27T07:38:34.541Z,1.30
2022-12-27T07:41:01.989Z,1.30
2022-12-27T07:43:33.734Z,1.30
2022-12-27T07:46:09.225Z,1.30
2022-12-27T07:48:36.406Z,1.40
2022-12-27T07:51:03.483Z,1.40
2022-12-27T07:53:31.130Z,1.40
2022-12-27T07:55:58.220Z,1.40
2022-12-27T07:58:24.976Z,1.40
2022-12-27T08:00:52.357Z,1.50
2022-12-27T08:03:19.633Z,1.50
2022-12-27T08:05:49.431Z,1.60
2022-12-27T08:08:18.096Z,1.60
2022-12-27T08:10:44.770Z,1.60
2022-12-27T08:13:11.673Z,1.70
2022-12-27T08:15:42.401Z,1.70
2022-12-27T08:18:09.943Z,1.80
2022-12-27T08:20:36.782Z,1.80
2022-12-27T08:23:03.911Z,2.00
2022-12-27T08:25:30.591Z,2.00
2022-12-27T08:28:08.537Z,2.10
2022-12-27T08:30:35.224Z,2.20
2022-12-27T08:33:04.120Z,2.30
2022-12-27T08:35:52.383Z,2.40
2022-12-27T08:38:18.603Z,2.50
2022-12-27T08:40:46.405Z,2.60
2022-12-27T08:43:14.258Z,2.80
2022-12-27T08:45:41.017Z,2.90
2022-12-27T08:48:08.004Z,3.00
2022-12-27T08:50:34.983Z,3.00
2022-12-27T08:53:03.123Z,3.10
2022-12-27T08:55:30.673Z,3.20
2022-12-27T08:58:02.235Z,3.30
2022-12-27T09:00:29.691Z,3.30
2022-12-27T09:02:56.849Z,3.40
2022-12-27T09:05:24.915Z,3.40
2022-12-27T09:07:51.937Z,3.50
2022-12-27T09:10:19.485Z,3.50
2022-12-27T09:12:46.131Z,3.50
2022-12-27T09:15:12.837Z,3.60
2022-12-27T09:17:40.369Z,3.60
2022-12-27T09:20:08.235Z,3.70
2022-12-27T09:22:35.258Z,3.80
2022-12-27T09:25:02.006Z,3.80
2022-12-27T09:27:28.716Z,3.90
2022-12-27T09:29:55.408Z,4.00
2022-12-27T09:32:22.297Z,4.10
2022-12-27T09:34:48.947Z,4.10
2022-12-27T09:37:15.668Z,4.20
2022-12-27T09:39:42.342Z,4.20
2022-12-27T09:42:59.626Z,4.20
2022-12-27T09:45:39.788Z,4.20
2022-12-27T09:48:33.539Z,4.30
2022-12-27T09:51:12.578Z,4.30
2022-12-27T09:53:46.243Z,4.30
2022-12-27T09:56:40.566Z,4.40
2022-12-27T09:59:26.997Z,4.50
2022-12-27T10:01:53.893Z,4.50
2022-12-27T10:04:20.909Z,4.60
2022-12-27T10:06:50.474Z,4.60
2022-12-27T10:09:50.129Z,4.80
2022-12-27T10:12:35.112Z,4.90
2022-12-27T10:15:16.939Z,5.00
2022-12-27T10:18:17.809Z,5.10
2022-12-27T10:21:05.784Z,5.20
2022-12-27T10:23:34.696Z,5.20
2022-12-27T10:26:07.148Z,5.20
2022-12-27T10:28:43.950Z,5.30
2022-12-27T10:31:19.700Z,5.40
2022-12-27T10:33:48.830Z,5.40
2022-12-27T10:36:20.342Z,5.50
2022-12-27T10:38:47.226Z,5.40
2022-12-27T10:41:22.741Z,5.50
2022-12-27T10:43:54.523Z,5.50
2022-12-27T10:46:32.396Z,5.50
2022-12-27T10:49:22.652Z,5.60
2022-12-27T10:51:51.208Z,5.60
2022-12-27T10:54:27.680Z,5.60
2022-12-27T10:56:55.811Z,5.50
2022-12-27T10:59:28.176Z,5.50
2022-12-27T11:02:00.980Z,5.60
2022-12-27T11:04:29.453Z,5.30
2022-12-27T11:07:02.157Z,5.40
2022-12-27T11:09:31.856Z,5.40
2022-12-27T11:12:13.957Z,5.30
2022-12-27T11:14:53.973Z,5.40
2022-12-27T11:17:36.929Z,5.30
2022-12-27T11:20:22.563Z,5.30
2022-12-27T11:23:12.298Z,5.30
2022-12-27T11:25:56.862Z,5.40
2022-12-27T11:28:32.348Z,5.50
2022-12-27T11:31:11.486Z,5.80
2022-12-27T11:33:47.269Z,5.60
2022-12-27T11:36:23.776Z,5.80
2022-12-27T11:38:51.283Z,5.70
2022-12-27T11:41:44.275Z,5.80
2022-12-27T11:44:32.065Z,5.90
2022-12-27T11:47:03.763Z,6.00
2022-12-27T11:49:41.743Z,6.00
2022-12-27T11:52:29.513Z,6.20
2022-12-27T11:55:27.183Z,6.40
2022-12-27T11:58:21.382Z,6.60
2022-12-27T12:01:05.684Z,6.70
2022-12-27T12:03:41.462Z,6.70
2022-12-27T12:06:35.767Z,6.80
2022-12-27T12:09:21.049Z,6.80
2022-12-27T12:12:09.685Z,6.80
2022-12-27T12:15:06.478Z,6.70
2022-12-27T12:17:46.494Z,6.80
2022-12-27T12:20:43.211Z,6.80
2022-12-27T12:23:27.997Z,6.90
2022-12-27T12:26:16.331Z,7.20
2022-12-27T12:28:59.669Z,7.30
2022-12-27T12:31:44.662Z,7.50
2022-12-27T12:34:24.314Z,7.30
2022-12-27T12:37:15.800Z,7.40
2022-12-27T12:39:57.948Z,7.50
2022-12-27T12:42:43.377Z,7.80
2022-12-27T12:45:34.770Z,7.90
2022-12-27T12:48:13.483Z,7.90
2022-12-27T12:50:50.665Z,8.10
2022-12-27T12:53:35.210Z,8.00
2022-12-27T12:56:34.427Z,7.60
2022-12-27T12:59:27.895Z,7.70
2022-12-27T13:02:12.643Z,7.30
2022-12-27T13:05:11.540Z,7.30
2022-12-27T13:07:53.363Z,7.10
2022-12-27T13:10:38.916Z,7.10
2022-12-27T13:13:05.983Z,7.10
2022-12-27T13:16:01.477Z,7.30
2022-12-27T13:18:49.698Z,7.20
2022-12-27T13:21:44.201Z,7.20
2022-12-27T13:24:35.904Z,7.00
2022-12-27T13:27:25.411Z,7.00
2022-12-27T13:30:03.018Z,7.00
2022-12-27T13:32:52.598Z,7.00
2022-12-27T13:35:28.204Z,7.00
2022-12-27T13:38:09.584Z,7.00
2022-12-27T13:40:57.825Z,6.90
2022-12-27T13:43:43.310Z,6.80
2022-12-27T13:46:42.705Z,6.80
2022-12-27T13:49:47.322Z,6.80
2022-12-27T13:52:51.328Z,6.70
2022-12-27T13:55:42.317Z,6.60
2022-12-27T13:58:47.599Z,6.50
2022-12-27T14:01:23.347Z,6.40
2022-12-27T14:04:20.525Z,6.30
2022-12-27T14:07:12.416Z,6.20
2022-12-27T14:09:39.066Z,6.10
2022-12-27T14:12:23.634Z,5.90
2022-12-27T14:14:51.217Z,6.00
2022-12-27T14:17:23.719Z,5.90
2022-12-27T14:20:02.526Z,5.90
2022-12-27T14:22:54.406Z,5.80
2022-12-27T14:25:58.944Z,5.70
2022-12-27T14:28:35.295Z,5.70
2022-12-27T14:31:20.139Z,5.60
2022-12-27T14:33:58.916Z,5.50
2022-12-27T14:36:44.520Z,5.50
2022-12-27T14:39:32.231Z,5.40
2022-12-27T14:42:14.966Z,5.40
2022-12-27T14:45:00.576Z,5.30
2022-12-27T14:47:36.751Z,5.20
2022-12-27T14:50:24.759Z,5.10
2022-12-27T14:53:00.579Z,5.10
2022-12-27T14:55:42.155Z,5.10
2022-12-27T14:58:52.886Z,5.00
2022-12-27T15:01:50.646Z,4.90
2022-12-27T15:04:35.596Z,4.80
2022-12-27T15:07:30.319Z,4.80
2022-12-27T15:10:18.350Z,4.70
2022-12-27T15:13:15.025Z,4.70
2022-12-27T15:16:13.201Z,4.60
2022-12-27T15:19:09.652Z,4.50
2022-12-27T15:21:45.347Z,4.50
2022-12-27T15:24:39.858Z,4.40
2022-12-27T15:27:30.920Z,4.30
2022-12-27T15:30:27.377Z,4.20
2022-12-27T15:33:13.577Z,4.10
2022-12-27T15:35:48.663Z,4.00
2022-12-27T15:38:35.311Z,3.90
2022-12-27T15:41:08.180Z,3.90
2022-12-27T15:43:46.697Z,3.80
2022-12-27T15:46:55.372Z,3.70
2022-12-27T15:49:27.775Z,3.70
2022-12-27T15:52:07.829Z,3.70
2022-12-27T15:54:53.653Z,3.70
2022-12-27T15:57:52.681Z,3.60
2022-12-27T16:00:33.558Z,3.60
2022-12-27T16:03:35.939Z,3.60
2022-12-27T16:06:04.448Z,3.50
2022-12-27T16:08:33.085Z,3.50
2022-12-27T16:11:00.964Z,3.50
2022-12-27T16:13:41.748Z,3.50
2022-12-27T16:16:32.593Z,3.50
2022-12-27T16:19:20.782Z,3.50
2022-12-27T16:21:47.568Z,3.50
2022-12-27T16:24:21.917Z,3.50
2022-12-27T16:27:01.197Z,3.50
2022-12-27T16:29:32.826Z,3.50
2022-12-27T16:32:22.621Z,3.50
2022-12-27T16:34:57.952Z,3.40
2022-12-27T16:37:29.991Z,3.40
2022-12-27T16:40:10.124Z,3.40
2022-12-27T16:42:51.182Z,3.30
2022-12-27T16:45:53.217Z,3.30
2022-12-27T16:48:49.421Z,3.30
2022-12-27T16:51:31.213Z,3.20
2022-12-27T16:54:05.332Z,3.10
2022-12-27T16:56:44.753Z,3.00
2022-12-27T16:59:48.873Z,2.90
2022-12-27T17:02:39.938Z,2.90
2022-12-27T17:05:34.137Z,2.80
2022-12-27T17:08:00.967Z,2.70
2022-12-27T17:10:27.963Z,2.70
2022-12-27T17:13:16.769Z,2.70
2022-12-27T17:15:55.583Z,2.60
2022-12-27T17:18:33.083Z,2.60
2022-12-27T17:21:15.200Z,2.60
2022-12-27T17:23:45.861Z,2.50
2022-12-27T17:26:43.524Z,2.50
2022-12-27T17:29:44.541Z,2.40
2022-12-27T17:32:25.231Z,2.40
2022-12-27T17:35:27.236Z,2.40
2022-12-27T17:38:18.557Z,2.40
2022-12-27T17:40:57.664Z,2.40
2022-12-27T17:44:14.063Z,2.30
2022-12-27T17:47:02.145Z,2.30
2022-12-27T17:49:30.800Z,2.30
2022-12-27T17:52:22.297Z,2.20
2022-12-27T17:55:07.938Z,2.20
2022-12-27T17:57:53.401Z,2.20
2022-12-27T18:00:26.516Z,2.10
2022-12-27T18:02:55.514Z,2.10
2022-12-27T18:05:30.570Z,2.10
2022-12-27T18:08:06.194Z,2.10
2022-12-27T18:10:34.597Z,2.00
2022-12-27T18:13:04.558Z,2.00
2022-12-27T18:15:34.573Z,2.00
2022-12-27T18:18:08.316Z,2.00
2022-12-27T18:20:37.523Z,2.00
2022-12-27T18:23:04.140Z,1.90
2022-12-27T18:25:32.342Z,1.90
2022-12-27T18:28:00.996Z,1.90
2022-12-27T18:30:33.338Z,1.90
2022-12-27T18:33:00.276Z,1.90
2022-12-27T18:35:27.598Z,1.90
2022-12-27T18:37:55.085Z,1.80
2022-12-27T18:40:24.189Z,1.80
2022-12-27T18:42:53.212Z,1.80
2022-12-27T18:45:24.372Z,1.80
2022-12-27T18:47:54.301Z,1.70
2022-12-27T18:50:24.645Z,1.70
2022-12-27T18:53:21.542Z,1.70
2022-12-27T18:56:00.572Z,1.70
2022-12-27T18:58:28.017Z,1.70
2022-12-27T19:01:25.814Z,1.70
2022-12-27T19:04:17.081Z,1.70
2022-12-27T19:07:06.857Z,1.70
2022-12-27T19:09:56.169Z,1.70
2022-12-27T19:12:36.762Z,1.70
2022-12-27T19:15:14.093Z,1.70
2022-12-27T19:17:44.557Z,1.60
2022-12-27T19:20:33.331Z,1.60
2022-12-27T19:23:04.454Z,1.60
2022-12-27T19:25:33.540Z,1.60
2022-12-27T19:28:12.059Z,1.60
2022-12-27T19:30:43.369Z,1.60
2022-12-27T19:33:15.269Z,1.60
2022-12-27T19:35:42.925Z,1.60
2022-12-27T19:38:21.364Z,1.60
2022-12-27T19:40:49.979Z,1.60
2022-12-27T19:43:17.537Z,1.50
2022-12-27T19:45:44.226Z,1.50
2022-12-27T19:48:11.398Z,1.50
2022-12-27T19:50:50.366Z,1.60
2022-12-27T19:53:20.819Z,1.50
2022-12-27T19:55:47.658Z,1.50
2022-12-27T19:58:24.571Z,1.50
2022-12-27T20:00:51.925Z,1.50
2022-12-27T20:03:18.706Z,1.50
2022-12-27T20:06:13.654Z,1.40
2022-12-27T20:08:53.907Z,1.40
2022-12-27T20:11:22.914Z,1.40
2022-12-27T20:13:49.789Z,1.40
2022-12-27T20:16:19.050Z,1.40
2022-12-27T20:18:46.245Z,1.40
2022-12-27T20:21:14.966Z,1.30
2022-12-27T20:23:41.954Z,1.30
2022-12-27T20:26:09.413Z,1.30
2022-12-27T20:28:36.272Z,1.40
2022-12-27T20:31:11.228Z,1.30
2022-12-27T20:33:38.266Z,1.30
2022-12-27T20:36:05.515Z,1.30
2022-12-27T20:38:32.582Z,1.30
2022-12-27T20:41:11.186Z,1.40
2022-12-27T20:43:38.175Z,1.40
2022-12-27T20:46:07.268Z,1.30
2022-12-27T20:48:37.762Z,1.40
2022-12-27T20:51:13.025Z,1.30
2022-12-27T20:53:39.730Z,1.40
2022-12-27T20:56:09.055Z,1.30
2022-12-27T20:58:35.995Z,1.30
2022-12-27T21:01:15.103Z,1.30
2022-12-27T21:03:42.947Z,1.30
2022-12-27T21:06:13.214Z,1.30
2022-12-27T21:08:46.554Z,1.30
2022-12-27T21:11:24.812Z,1.20
2022-12-27T21:13:51.617Z,1.20
2022-12-27T21:16:27.285Z,1.10
2022-12-27T21:18:55.085Z,1.10
2022-12-27T21:21:27.621Z,1.10
2022-12-27T21:23:55.416Z,1.10
2022-12-27T21:26:25.219Z,1.10
2022-12-27T21:28:52.377Z,1.00
2022-12-27T21:31:20.142Z,1.00
2022-12-27T21:33:47.494Z,1.00
2022-12-27T21:36:26.106Z,1.00
2022-12-27T21:38:54.401Z,1.00
2022-12-27T21:41:26.748Z,1.00
2022-12-27T21:43:54.428Z,1.00
2022-12-27T21:46:32.705Z,0.90
2022-12-27T21:49:01.995Z,0.90
2022-12-27T21:51:30.553Z,0.90
2022-12-27T21:53:57.804Z,0.90
2022-12-27T21:56:25.226Z,0.90
2022-12-27T21:58:55.269Z,0.90
2022-12-27T22:01:30.053Z,0.80
2022-12-27T22:03:58.361Z,0.80
2022-12-27T22:06:29.745Z,0.80
2022-12-27T22:09:02.492Z,0.90
2022-12-27T22:11:30.636Z,0.80
2022-12-27T22:13:57.591Z,0.80
2022-12-27T22:16:28.544Z,0.90
2022-12-27T22:18:58.085Z,1.00
2022-12-27T22:21:28.079Z,1.00
2022-12-27T22:23:57.057Z,1.00
2022-12-27T22:26:30.160Z,1.00
2022-12-27T22:28:57.404Z,1.00
2022-12-27T22:31:30.093Z,1.10
2022-12-27T22:33:56.966Z,1.10
2022-12-27T22:36:25.669Z,1.10
2022-12-27T22:51:35.402Z,1.00
2022-12-27T22:54:03.755Z,1.00
2022-12-27T22:56:32.971Z,1.00
2022-12-27T22:59:00.388Z,1.00
2022-12-27T23:01:30.063Z,1.10
2022-12-27T23:03:58.467Z,1.10
2022-12-27T23:06:26.074Z,1.20
2022-12-27T23:08:52.849Z,1.30
2022-12-27T23:11:20.742Z,1.30
2022-12-27T23:13:48.638Z,1.40
2022-12-27T23:16:15.519Z,1.50
2022-12-27T23:18:42.320Z,1.50
2022-12-27T23:21:20.989Z,1.60
2022-12-27T23:23:51.328Z,1.70
2022-12-27T23:26:20.620Z,1.70
2022-12-27T23:28:47.979Z,1.80
2022-12-27T23:31:15.532Z,1.80
2022-12-27T23:33:43.514Z,1.80
2022-12-27T23:36:11.391Z,1.80
2022-12-27T23:38:38.415Z,1.80
2022-12-27T23:41:07.074Z,1.80
2022-12-27T23:43:53.710Z,1.70
2022-12-27T23:46:28.077Z,1.70
2022-12-27T23:48:55.976Z,1.70
2022-12-27T23:51:23.264Z,1.70
2022-12-27T23:53:50.333Z,1.70
2022-12-27T23:56:32.104Z,1.60
2022-12-27T23:59:00.975Z,1.60
